Jonesburg, Louisiana
Current Conditions -  °F | °C
As of 4:53 PM on Tuesday 21 Oct 2014 (Local Time) from KMLU Reporting Station
Broken Clouds Broken Clouds  
Wind Chill: 79°   Ceiling: 4600
Heat Index: 80°   Visibility: 10mi
Dew Point: 60°   Wind: 10mph
Humidity: 52%   Direction: 350°N
Pressure: 30.02"   Gusts: NA
Location:  32.4475°N, 91.7992°W
Report Text: KMLU 212153Z 35009KT 10SM BKN046 26/16 A3002 RMK AO2 SLP166 T02610156
Loading
Personal Weather Stations






























Interactive Weather Map
Tropical Storm Tracking
New forecast layout! Learn more

10-Day Weather Forecast

Advertisements
Track Severe Weather on mobile